Portada
METAR-TAF:

METAR-TAF

Aeropuertos :

Jendouba, Túnez

latitud: 36-29N, longitud: 008-48E, altitud: 143 m

Observación

El informe se hizo hace 51 minutos, a las 13:00 UTC
Viento 8 kt del este-sureste, variando entre este-noreste y sureste
Temperatura 19°C
Humedad 49%
Presión 1024 hPa
Visibilidad 10 km o más
Nubes dispersas a una altura de 2000 ft

METAR: DTTN 221300Z 11008KT 070V140 9999 SCT020 19/08 Q1024

Hora: 14:51 (13:51 UTC)


TAF: falta

Observaciones y pronósticos meteorológicos de más de 4000 aeropuertos (mensajes METAR y TAF).

Los puntos amarillos y rojos representan las estaciones disponibles.

Ponga el ratón en el punto deseado para ver el nombre de la estación.

Haga clic para ver las observaciones y los pronósticos meteorológicos.

Para cambiar el mapa : haga clic en los botones verdes con una cruz de color negro para hacer un zoom, en el botón verde con un guión para alejar o en las flechas verdes para mapas adyacentes.


METAR-TAF: